Time;durP1;ratioP1;P1;durP2;ratioP2;P2;SDS_P1;SDS_P2;PMS_P1;PMS_P2;Temp;Humidity;BMP_temperature;BMP_pressure;BME280_temperature;BME280_humidity;BME280_pressure;Samples;Min_cycle;Max_cycle;Signal;HPM_P1;HPM_P2
2021/05/21 04:38:19;;;;;;;12.52;7.10;;;;;;;7.72;81.60;99831.13;5191772;27;20792;-67
2021/05/21 04:40:44;;;;;;;11.63;6.25;;;;;;;7.91;81.42;99837.13;5191732;27;20059;-65
2021/05/21 04:43:10;;;;;;;9.30;7.00;;;;;;;8.10;80.89;99839.50;5191512;27;41325;-65
2021/05/21 04:45:35;;;;;;;8.18;5.85;;;;;;;8.30;80.58;99849.84;5193494;27;33217;-66
2021/05/21 04:48:00;;;;;;;10.38;7.28;;;;;;;8.44;80.41;99841.22;5194514;27;20030;-66
2021/05/21 04:50:26;;;;;;;8.10;7.07;;;;;;;8.62;80.26;99834.94;5194235;27;20441;-66
2021/05/21 04:52:51;;;;;;;11.07;6.90;;;;;;;8.78;80.31;99832.28;5193611;27;37417;-67
2021/05/21 04:55:17;;;;;;;8.27;6.70;;;;;;;8.91;80.02;99826.47;5194753;27;20092;-67
2021/05/21 04:57:42;;;;;;;7.78;6.32;;;;;;;9.05;80.38;99814.31;5193199;27;34180;-67
2021/05/21 05:00:09;;;;;;;9.18;6.80;;;;;;;9.17;79.89;99819.25;5194673;27;20038;-68
2021/05/21 05:02:34;;;;;;;9.63;6.47;;;;;;;9.26;79.50;99819.06;5194600;27;20042;-67
2021/05/21 05:04:59;;;;;;;8.52;6.15;;;;;;;9.31;79.00;99821.22;5194244;27;31595;-68
2021/05/21 05:07:25;;;;;;;10.85;6.60;;;;;;;9.32;78.68;99818.41;5194277;27;20022;-67
2021/05/21 05:09:50;;;;;;;10.30;6.60;;;;;;;9.35;78.92;99819.03;5194802;27;20026;-66
2021/05/21 05:12:15;;;;;;;8.00;6.43;;;;;;;9.40;78.81;99814.88;5193944;27;29346;-68
2021/05/21 05:14:41;;;;;;;7.57;5.72;;;;;;;9.48;79.15;99814.84;5193307;27;37884;-69
2021/05/21 05:17:06;;;;;;;10.07;7.63;;;;;;;9.60;79.15;99814.47;5193739;27;31571;-67
2021/05/21 05:19:32;;;;;;;8.43;6.70;;;;;;;9.79;79.56;99814.03;5194225;27;23667;-69
2021/05/21 05:21:57;;;;;;;8.30;6.22;;;;;;;10.02;79.67;99813.25;5194449;27;20463;-66
2021/05/21 05:24:23;;;;;;;11.38;6.30;;;;;;;10.26;79.46;99809.59;5175329;27;20054;-67
2021/05/21 05:26:49;;;;;;;11.98;6.80;;;;;;;10.52;79.78;99812.94;5187728;27;39096;-67
2021/05/21 05:29:14;;;;;;;13.30;5.90;;;;;;;10.79;79.28;99809.69;5173105;27;20034;-64
2021/05/21 05:31:39;;;;;;;9.27;6.45;;;;;;;11.07;80.14;99797.59;5173108;27;20031;-64
2021/05/21 05:34:05;;;;;;;9.85;5.78;;;;;;;11.34;79.02;99798.78;5172862;27;20049;-65
2021/05/21 05:36:30;;;;;;;9.10;5.45;;;;;;;11.63;79.39;99799.75;5172222;27;20074;-64
2021/05/21 05:38:56;;;;;;;8.80;5.45;;;;;;;11.89;78.85;99806.44;5172385;27;20023;-64
2021/05/21 05:41:21;;;;;;;6.85;5.35;;;;;;;12.18;78.52;99797.53;5172727;27;20049;-65
2021/05/21 05:43:47;;;;;;;7.90;5.18;;;;;;;12.44;78.04;99791.59;5171921;27;38820;-64
2021/05/21 05:46:12;;;;;;;8.55;5.10;;;;;;;12.70;78.26;99791.00;5135115;27;35376;-64
2021/05/21 05:48:37;;;;;;;11.45;5.10;;;;;;;12.98;77.27;99786.66;5163971;27;34195;-65
2021/05/21 05:51:03;;;;;;;5.85;4.82;;;;;;;13.05;75.66;99768.81;5140161;27;20026;-65
2021/05/21 05:53:32;;;;;;;8.38;4.03;;;;;;;13.16;75.79;99762.91;5158586;27;20027;-64
2021/05/21 05:55:57;;;;;;;7.05;4.80;;;;;;;13.28;74.82;99765.03;5139700;27;20031;-64
2021/05/21 05:58:23;;;;;;;6.82;4.60;;;;;;;13.36;74.63;99768.38;5158857;27;20030;-65
2021/05/21 06:00:48;;;;;;;7.20;4.25;;;;;;;13.36;72.59;99768.38;5158354;27;20052;-64
2021/05/21 06:03:13;;;;;;;5.00;3.95;;;;;;;13.30;72.22;99776.34;5158569;27;20027;-65
2021/05/21 06:05:39;;;;;;;5.10;3.80;;;;;;;13.30;73.07;99768.31;5158194;27;20797;-64
2021/05/21 06:08:05;;;;;;;4.93;3.83;;;;;;;13.39;72.26;99771.69;5166412;27;20033;-64
2021/05/21 06:10:34;;;;;;;6.38;3.40;;;;;;;13.51;73.02;99759.41;5179130;27;20027;-65
2021/05/21 06:13:01;;;;;;;6.22;3.55;;;;;;;13.75;72.68;99744.66;5179480;27;20031;-64
2021/05/21 06:15:27;;;;;;;3.60;3.15;;;;;;;13.98;72.26;99749.66;5178600;27;20051;-64
2021/05/21 06:17:53;;;;;;;5.60;3.70;;;;;;;13.97;69.74;99744.47;5179515;27;20027;-65
2021/05/21 06:20:19;;;;;;;6.68;3.65;;;;;;;14.10;70.97;99741.81;5179253;27;20106;-65
2021/05/21 06:22:44;;;;;;;6.68;3.22;;;;;;;14.29;70.43;99745.53;5179188;27;20042;-67
2021/05/21 06:25:10;;;;;;;7.03;3.58;;;;;;;14.33;70.29;99736.06;5178386;27;26677;-66
2021/05/21 06:27:35;;;;;;;5.35;3.28;;;;;;;14.49;70.37;99736.69;5178697;27;20034;-66
2021/05/21 06:30:02;;;;;;;5.65;3.50;;;;;;;14.64;68.55;99731.97;5121123;27;20050;-66
2021/05/21 06:32:27;;;;;;;4.80;3.03;;;;;;;14.64;66.83;99726.63;5178725;27;20027;-68
2021/05/21 06:34:53;;;;;;;4.50;3.05;;;;;;;14.62;66.93;99722.44;5178721;27;30443;-66
2021/05/21 06:37:18;;;;;;;5.78;3.55;;;;;;;14.81;66.25;99724.31;5178909;27;20043;-66
2021/05/21 06:39:44;;;;;;;3.50;2.40;;;;;;;14.85;64.36;99724.72;5159856;27;20035;-63
2021/05/21 06:42:10;;;;;;;6.25;3.92;;;;;;;14.82;66.51;99723.28;5178282;27;20134;-64
2021/05/21 06:44:35;;;;;;;4.60;2.90;;;;;;;14.92;66.45;99722.03;5178857;27;20022;-68
2021/05/21 06:47:00;;;;;;;7.22;3.40;;;;;;;15.15;66.97;99734.97;5178128;27;30057;-68
2021/05/21 06:49:26;;;;;;;5.22;3.40;;;;;;;15.03;64.88;99734.78;5178678;27;26164;-67
2021/05/21 06:51:51;;;;;;;7.82;2.97;;;;;;;14.88;63.67;99717.09;5178962;27;20031;-64
2021/05/21 06:54:18;;;;;;;6.10;2.78;;;;;;;14.99;64.40;99720.13;5179236;27;20030;-65
2021/05/21 06:56:43;;;;;;;4.95;2.80;;;;;;;14.99;63.78;99712.91;5160158;27;20034;-64
2021/05/21 06:59:09;;;;;;;3.88;2.47;;;;;;;14.99;62.89;99720.94;5177775;27;20030;-65
2021/05/21 07:01:34;;;;;;;4.03;2.88;;;;;;;15.06;63.13;99711.03;5177386;27;38712;-64
2021/05/21 07:03:59;;;;;;;4.20;2.42;;;;;;;15.14;61.53;99709.97;5178441;27;31377;-64
2021/05/21 07:06:25;;;;;;;4.47;3.20;;;;;;;15.23;61.91;99710.56;5179049;27;20023;-64
2021/05/21 07:08:50;;;;;;;4.68;3.38;;;;;;;15.48;62.42;99712.53;5178710;27;24673;-65
2021/05/21 07:11:17;;;;;;;5.75;2.67;;;;;;;15.62;61.28;99705.22;5179021;27;20037;-64
2021/05/21 07:13:42;;;;;;;7.22;3.05;;;;;;;15.79;61.42;99690.25;5178368;27;20117;-67
2021/05/21 07:16:07;;;;;;;3.55;2.50;;;;;;;16.07;61.37;99702.47;5159173;27;30191;-69
2021/05/21 07:18:33;;;;;;;5.25;2.83;;;;;;;16.21;59.75;99695.97;5178942;27;20031;-65
2021/05/21 07:21:02;;;;;;;5.05;3.22;;;;;;;16.37;59.95;99691.88;5158936;27;38128;-65
2021/05/21 07:23:29;;;;;;;5.30;2.80;;;;;;;16.35;59.71;99683.22;5157386;27;20027;-67
2021/05/21 07:25:54;;;;;;;5.68;2.83;;;;;;;16.53;58.95;99679.75;5157064;27;20031;-65
2021/05/21 07:28:20;;;;;;;4.35;2.40;;;;;;;16.52;58.15;99672.72;5156383;27;33234;-68
2021/05/21 07:30:46;;;;;;;2.60;1.98;;;;;;;16.63;57.23;99667.66;5157128;27;20020;-65
2021/05/21 07:33:11;;;;;;;3.15;2.30;;;;;;;16.65;58.28;99670.94;5157194;27;20027;-62
2021/05/21 07:35:36;;;;;;;2.55;1.90;;;;;;;16.64;56.02;99672.81;5138484;27;20460;-64
2021/05/21 07:38:02;;;;;;;5.68;2.03;;;;;;;16.45;55.98;99668.47;5138379;27;26153;-65
2021/05/21 07:40:27;;;;;;;3.60;2.50;;;;;;;16.50;56.02;99661.38;5121267;27;20023;-65
2021/05/21 07:42:53;;;;;;;5.18;2.22;;;;;;;16.56;56.14;99668.53;5156508;27;34119;-64
2021/05/21 07:45:19;;;;;;;2.58;1.80;;;;;;;16.56;55.35;99657.78;5112541;27;20040;-66
2021/05/21 07:47:44;;;;;;;3.20;1.90;;;;;;;16.86;56.28;99653.56;5093062;28;20028;-69
2021/05/21 07:50:13;;;;;;;3.95;1.90;;;;;;;17.11;56.34;99648.09;5094438;28;20927;-66
2021/05/21 07:52:39;;;;;;;4.80;1.73;;;;;;;17.28;53.89;99637.53;5077406;28;20107;-67
2021/05/21 07:55:05;;;;;;;3.35;1.98;;;;;;;17.25;54.30;99641.50;5076414;28;38834;-66
2021/05/21 07:57:32;;;;;;;3.53;2.00;;;;;;;17.36;54.24;99629.13;5098442;28;20477;-69
2021/05/21 07:59:57;;;;;;;3.67;2.50;;;;;;;17.64;54.83;99626.88;5115838;28;20028;-68
2021/05/21 08:02:22;;;;;;;4.63;1.55;;;;;;;17.74;52.46;99635.19;5114726;28;42474;-69
2021/05/21 08:04:48;;;;;;;2.53;1.70;;;;;;;17.78;52.75;99622.91;5116118;28;20119;-67
2021/05/21 08:07:13;;;;;;;2.28;1.50;;;;;;;17.88;52.76;99633.94;5115064;28;37268;-68
2021/05/21 08:09:40;;;;;;;3.45;1.60;;;;;;;17.92;51.81;99618.19;5114939;28;37073;-66
2021/05/21 08:12:06;;;;;;;1.92;1.23;;;;;;;18.14;52.90;99626.50;5114928;27;20024;-68
2021/05/21 08:14:32;;;;;;;5.30;1.90;;;;;;;18.46;51.67;99631.53;5115154;28;20020;-68
2021/05/21 08:16:57;;;;;;;2.83;1.60;;;;;;;18.59;51.84;99625.91;5115751;28;20020;-69
2021/05/21 08:19:22;;;;;;;2.15;1.40;;;;;;;18.50;48.66;99615.72;5114977;28;30429;-66
2021/05/21 08:21:48;;;;;;;1.95;1.40;;;;;;;18.43;48.94;99610.44;5114912;28;26583;-65
2021/05/21 08:24:13;;;;;;;2.95;1.17;;;;;;;18.74;49.91;99606.50;5078617;28;38284;-69
2021/05/21 08:26:38;;;;;;;1.92;1.55;;;;;;;18.96;48.31;99635.59;5114480;28;36927;-67
2021/05/21 08:29:04;;;;;;;6.95;2.10;;;;;;;18.99;47.84;99612.69;5113820;28;39581;-68
2021/05/21 08:31:29;;;;;;;5.50;1.67;;;;;;;19.18;46.08;99610.63;5114328;28;37063;-66
2021/05/21 08:33:54;;;;;;;3.00;1.20;;;;;;;19.34;46.60;99619.81;5114582;28;35816;-68
2021/05/21 08:36:21;;;;;;;3.85;0.90;;;;;;;19.35;47.13;99599.88;5096639;28;20040;-69
2021/05/21 08:38:46;;;;;;;2.20;1.17;;;;;;;19.48;46.51;99615.78;5097031;28;20094;-68
2021/05/21 08:41:21;;;;;;;3.20;0.95;;;;;;;19.42;43.57;99608.63;5114675;28;21620;-67
2021/05/21 08:43:48;;;;;;;3.50;1.85;;;;;;;19.30;44.75;99586.25;5114997;28;20028;-67
2021/05/21 08:46:14;;;;;;;2.58;1.17;;;;;;;19.20;43.44;99582.31;5093304;28;20071;-68
2021/05/21 08:48:40;;;;;;;3.42;0.93;;;;;;;19.03;43.09;99587.69;5093392;28;20032;-68
2021/05/21 08:51:09;;;;;;;5.68;1.50;;;;;;;19.09;44.67;99585.88;5092774;28;20029;-68
2021/05/21 08:53:34;;;;;;;1.50;0.80;;;;;;;19.21;43.26;99591.25;5074754;28;20025;-68
2021/05/21 08:56:00;;;;;;;2.25;1.10;;;;;;;19.18;42.35;99579.03;5091533;28;20333;-69
2021/05/21 08:58:25;;;;;;;2.33;1.30;;;;;;;19.34;43.38;99576.63;5103392;28;20039;-70
2021/05/21 09:00:50;;;;;;;1.45;1.10;;;;;;;19.23;40.78;99581.00;5112993;28;32313;-69
2021/05/21 09:03:20;;;;;;;1.95;1.75;;;;;;;19.09;41.79;99575.09;5113883;28;20392;-71
2021/05/21 09:06:19;;;;;;;2.53;1.65;;;;;;;19.14;42.25;99571.69;5094984;28;20032;-70
2021/05/21 09:08:48;;;;;;;3.08;1.15;;;;;;;19.39;42.04;99566.72;5113245;28;20119;-70
2021/05/21 09:11:29;;;;;;;1.15;0.75;;;;;;;19.38;41.08;99551.59;5113484;28;20050;-69
2021/05/21 09:13:59;;;;;;;1.77;1.13;;;;;;;19.32;40.40;99546.34;5113407;28;20043;-66
2021/05/21 09:16:26;;;;;;;1.75;0.75;;;;;;;19.28;39.45;99552.22;5095269;28;20044;-68
2021/05/21 09:19:30;;;;;;;1.95;0.80;;;;;;;19.02;39.20;99579.81;5113377;28;20036;-67
2021/05/21 09:22:02;;;;;;;1.00;0.85;;;;;;;18.99;39.20;99556.03;5029958;28;20081;-66
2021/05/21 09:24:41;;;;;;;4.88;1.15;;;;;;;19.11;40.96;99541.41;5032658;28;20525;-69
2021/05/21 09:27:07;;;;;;;1.73;0.95;;;;;;;19.39;39.95;99536.19;5083270;28;20051;-67
2021/05/21 09:29:51;;;;;;;1.52;0.80;;;;;;;19.31;38.94;99548.22;5116797;28;20035;-68
2021/05/21 09:32:37;;;;;;;3.03;1.10;;;;;;;19.27;39.18;99539.78;5116422;28;20028;-67
2021/05/21 09:35:16;;;;;;;1.30;0.90;;;;;;;19.08;38.70;99520.28;5117159;28;20230;-67
2021/05/21 09:37:52;;;;;;;1.40;0.73;;;;;;;18.98;39.18;99522.00;5098443;28;20079;-63
2021/05/21 09:40:24;;;;;;;1.35;0.90;;;;;;;19.00;38.67;99511.75;5116730;28;20040;-64
2021/05/21 09:43:00;;;;;;;1.73;1.05;;;;;;;19.08;38.93;99522.16;5114703;28;20025;-64
2021/05/21 09:45:30;;;;;;;2.20;0.90;;;;;;;19.21;39.38;99524.56;5097299;28;20024;-64
2021/05/21 09:47:59;;;;;;;2.22;1.20;;;;;;;19.32;39.37;99519.34;5115589;28;20036;-65
2021/05/21 09:50:44;;;;;;;5.82;1.10;;;;;;;19.37;39.66;99522.09;5077949;28;20539;-62
2021/05/21 09:53:17;;;;;;;1.45;0.98;;;;;;;19.41;38.52;99518.69;5093918;28;20519;-66
2021/05/21 09:55:50;;;;;;;0.98;0.68;;;;;;;19.41;38.31;99501.66;5078556;28;20036;-64
2021/05/21 09:58:29;;;;;;;1.38;0.80;;;;;;;19.58;38.65;99490.84;5103765;28;20566;-62
2021/05/21 10:01:16;;;;;;;2.17;0.90;;;;;;;19.72;37.76;99494.84;5096944;28;20033;-66
2021/05/21 10:03:54;;;;;;;1.30;0.85;;;;;;;19.75;38.15;99480.00;5097309;28;20028;-64
2021/05/21 10:06:21;;;;;;;2.20;0.85;;;;;;;19.88;38.63;99471.59;5096433;28;20724;-65
2021/05/21 10:08:48;;;;;;;0.60;0.60;;;;;;;20.04;37.27;99479.91;5096726;28;20040;-68
2021/05/21 10:11:14;;;;;;;0.95;0.80;;;;;;;19.92;37.29;99483.53;5096685;28;20033;-61
2021/05/21 10:13:42;;;;;;;2.55;0.90;;;;;;;19.88;37.72;99466.19;5087186;28;20032;-61
2021/05/21 10:16:08;;;;;;;6.18;0.63;;;;;;;19.95;37.23;99469.50;5096676;28;20373;-65
2021/05/21 10:18:34;;;;;;;1.10;0.50;;;;;;;20.00;37.17;99470.66;5077697;28;38257;-63
2021/05/21 10:21:00;;;;;;;2.03;0.77;;;;;;;20.13;37.27;99475.69;5096642;28;20073;-61
2021/05/21 10:23:42;;;;;;;1.75;0.80;;;;;;;20.13;36.49;99470.28;5096957;28;20392;-63
2021/05/21 10:26:16;;;;;;;1.45;0.77;;;;;;;20.12;36.65;99449.75;5062584;28;20036;-63
2021/05/21 10:28:42;;;;;;;1.75;0.70;;;;;;;20.32;37.09;99454.56;5078377;28;20887;-62
2021/05/21 10:31:13;;;;;;;0.50;0.50;;;;;;;20.45;36.88;99434.44;5061421;28;20476;-61
2021/05/21 10:33:39;;;;;;;2.55;0.90;;;;;;;20.98;38.17;99433.88;5096539;28;20104;-62
2021/05/21 10:36:23;;;;;;;1.23;0.73;;;;;;;21.62;37.00;99427.59;5095598;28;20025;-63
2021/05/21 10:39:10;;;;;;;1.08;0.80;;;;;;;21.27;34.11;99413.53;5096928;28;20028;-60
2021/05/21 10:41:37;;;;;;;0.70;0.50;;;;;;;21.43;35.39;99406.34;5095331;28;20047;-62
2021/05/21 10:44:17;;;;;;;2.42;0.65;;;;;;;21.38;34.41;99416.31;5066615;28;20461;-62
2021/05/21 10:46:42;;;;;;;;;;;;;;;21.38;35.02;99413.59;5093263;28;20518;-62
2021/05/21 10:49:18;;;;;;;0.57;0.43;;;;;;;21.49;34.49;99420.72;5096634;28;19966;-63
2021/05/21 10:51:53;;;;;;;2.08;0.70;;;;;;;21.44;33.57;99409.84;5079297;28;20033;-62
2021/05/21 10:54:23;;;;;;;2.63;0.70;;;;;;;21.60;34.11;99408.91;5074320;28;20041;-61
2021/05/21 10:56:49;;;;;;;2.22;0.57;;;;;;;21.76;33.61;99408.97;5076318;28;20036;-65
2021/05/21 10:59:14;;;;;;;1.98;0.65;;;;;;;21.89;33.67;99411.22;5109735;28;31937;-62
2021/05/21 11:01:44;;;;;;;0.57;0.40;;;;;;;21.82;32.70;99423.38;5095144;28;35274;-62
2021/05/21 11:04:09;;;;;;;1.25;0.63;;;;;;;21.85;33.22;99412.81;5114542;28;20034;-61
2021/05/21 11:06:46;;;;;;;3.35;0.60;;;;;;;22.10;32.92;99424.84;5095858;28;20384;-64
2021/05/21 11:09:13;;;;;;;6.55;0.80;;;;;;;22.12;33.27;99414.56;5095169;28;20035;-60
2021/05/21 11:11:58;;;;;;;2.83;0.57;;;;;;;22.01;32.59;99416.41;5114405;28;20028;-60
2021/05/21 11:14:26;;;;;;;2.00;0.60;;;;;;;21.90;32.77;99410.13;5116152;28;20032;-62
2021/05/21 11:16:52;;;;;;;4.30;0.80;;;;;;;22.09;33.13;99406.94;5116313;28;20040;-62
2021/05/21 11:19:26;;;;;;;2.15;0.50;;;;;;;21.85;31.89;99410.09;5116142;28;20036;-62
2021/05/21 11:22:04;;;;;;;2.10;0.50;;;;;;;21.86;32.75;99390.06;5116100;28;20058;-61
2021/05/21 11:24:43;;;;;;;4.03;1.45;;;;;;;21.85;33.17;99384.91;5105819;28;20814;-63
2021/05/21 11:27:11;;;;;;;1.90;0.68;;;;;;;22.01;32.97;99385.75;5095975;28;20485;-67
2021/05/21 11:29:37;;;;;;;0.93;0.60;;;;;;;22.34;34.07;99372.84;5095443;28;20032;-63
2021/05/21 11:32:05;;;;;;;2.63;0.70;;;;;;;22.69;33.21;99390.28;5060904;28;20028;-64
2021/05/21 11:34:30;;;;;;;2.95;0.80;;;;;;;22.48;32.18;99374.81;5077440;28;20036;-64
2021/05/21 11:36:56;;;;;;;3.00;1.80;;;;;;;22.23;31.68;99374.72;5094568;28;27651;-64
2021/05/21 11:39:24;;;;;;;1.80;0.93;;;;;;;22.15;32.31;99384.19;5095656;28;20027;-61
2021/05/21 11:41:49;;;;;;;1.98;1.00;;;;;;;22.14;32.32;99358.13;5095545;28;20067;-60
2021/05/21 11:44:15;;;;;;;1.83;0.50;;;;;;;22.19;32.62;99346.50;5084050;28;40876;-60
2021/05/21 11:46:42;;;;;;;0.28;0.28;;;;;;;22.24;31.78;99376.34;5115054;28;20086;-60
2021/05/21 11:49:23;;;;;;;0.52;0.40;;;;;;;22.27;32.26;99360.34;5115704;28;20581;-60
2021/05/21 11:51:59;;;;;;;;;;;;;;;22.26;32.37;99361.44;5081797;28;20082;-60
2021/05/21 11:54:25;;;;;;;2.05;0.70;;;;;;;22.25;32.10;99348.97;5095016;28;19917;-60
2021/05/21 11:56:51;;;;;;;8.65;0.98;;;;;;;22.36;31.81;99351.72;5095073;28;20021;-60
2021/05/21 11:59:18;;;;;;;2.58;0.63;;;;;;;22.43;31.52;99357.69;5111875;28;20034;-59
2021/05/21 12:01:48;;;;;;;1.98;0.73;;;;;;;22.34;31.23;99326.72;5107440;28;20894;-60
2021/05/21 12:04:14;;;;;;;3.00;0.47;;;;;;;22.29;31.11;99322.94;5094864;28;20028;-59
2021/05/21 12:06:42;;;;;;;3.03;0.50;;;;;;;22.43;31.49;99304.25;5095027;28;20032;-60
2021/05/21 12:09:08;;;;;;;0.90;0.45;;;;;;;22.65;31.92;99309.41;5094906;28;20028;-60
2021/05/21 12:11:34;;;;;;;0.80;0.40;;;;;;;22.70;30.94;99288.78;5076155;28;20052;-60
2021/05/21 12:14:03;;;;;;;1.10;0.40;;;;;;;22.72;31.30;99292.84;5100185;28;20088;-61
2021/05/21 12:16:30;;;;;;;1.30;0.40;;;;;;;22.43;29.88;99311.56;5115230;28;20031;-60
2021/05/21 12:18:56;;;;;;;1.70;0.47;;;;;;;22.22;30.57;99299.84;5115379;28;20040;-59
2021/05/21 12:21:33;;;;;;;0.35;0.30;;;;;;;22.18;30.21;99286.00;5115114;28;20429;-60
2021/05/21 12:23:58;;;;;;;3.22;0.63;;;;;;;22.02;30.45;99325.03;5077901;28;20071;-62
2021/05/21 12:26:32;;;;;;;2.53;0.50;;;;;;;22.05;30.41;99310.91;5094708;28;20024;-60
2021/05/21 12:28:58;;;;;;;1.52;0.40;;;;;;;21.90;30.48;99317.16;5095009;28;20145;-60
2021/05/21 13:51:22;;;;;;;1.80;0.50;;;;;;;20.27;31.14;99289.53;5139300;27;20361;-58
2021/05/21 13:53:47;;;;;;;2.78;0.50;;;;;;;20.24;31.08;99280.06;5155785;27;29032;-58
2021/05/21 13:56:13;;;;;;;2.17;0.70;;;;;;;20.36;31.56;99273.66;5171851;27;36569;-59
2021/05/21 13:58:40;;;;;;;3.53;1.35;;;;;;;20.46;31.19;99262.91;5170999;27;20103;-60
2021/05/21 14:01:06;;;;;;;4.35;1.70;;;;;;;20.43;31.12;99249.91;5172753;27;20027;-58
2021/05/21 14:03:31;;;;;;;2.05;0.52;;;;;;;20.49;31.67;99267.84;5171845;27;20648;-59
2021/05/21 14:05:56;;;;;;;6.65;3.95;;;;;;;20.53;31.35;99255.44;5171928;27;36511;-58
2021/05/21 14:08:22;;;;;;;1.35;0.90;;;;;;;20.60;31.63;99250.59;5170411;27;35444;-62
2021/05/21 14:10:47;;;;;;;0.88;0.50;;;;;;;20.51;31.22;99232.41;5172691;27;20332;-61
2021/05/21 14:13:12;;;;;;;2.78;0.75;;;;;;;20.48;31.48;99233.72;5172471;27;20035;-58
2021/05/21 14:15:38;;;;;;;2.67;1.00;;;;;;;20.53;31.22;99230.25;5170261;27;20019;-60
2021/05/21 14:18:03;;;;;;;4.22;1.45;;;;;;;20.52;31.46;99240.25;5170909;27;20027;-60
2021/05/21 14:20:29;;;;;;;1.73;0.70;;;;;;;20.51;31.58;99227.00;5171207;27;35623;-60
2021/05/21 14:22:55;;;;;;;6.18;2.40;;;;;;;20.48;31.75;99224.81;5172332;27;20042;-59
2021/05/21 14:25:42;;;;;;;4.07;1.55;;;;;;;20.42;31.77;99229.34;5172049;27;20027;-60
2021/05/21 14:28:06;;;;;;;3.22;1.17;;;;;;;20.36;31.96;99219.59;5171403;27;20035;-60
2021/05/21 14:30:32;;;;;;;1.63;0.93;;;;;;;20.35;32.12;99217.94;5172016;27;20030;-59
2021/05/21 14:32:58;;;;;;;2.30;0.82;;;;;;;20.32;32.01;99205.75;5172356;27;20027;-59
2021/05/21 14:35:27;;;;;;;1.98;0.57;;;;;;;20.34;32.03;99213.59;5171976;27;20383;-59
2021/05/21 14:37:52;;;;;;;4.63;1.02;;;;;;;20.30;32.10;99210.63;5171948;27;20030;-60
2021/05/21 14:40:18;;;;;;;2.80;1.67;;;;;;;20.20;32.22;99205.94;5171541;27;20034;-59
2021/05/21 14:42:43;;;;;;;4.45;1.13;;;;;;;20.27;32.48;99203.81;5172126;27;20402;-60
2021/05/21 14:45:09;;;;;;;5.60;2.00;;;;;;;20.28;32.62;99197.34;5171465;27;20023;-60
2021/05/21 14:47:35;;;;;;;1.17;0.70;;;;;;;20.28;32.50;99191.94;5171848;27;20487;-59
2021/05/21 14:50:00;;;;;;;1.98;1.02;;;;;;;20.22;32.42;99197.56;5171499;27;20039;-59
2021/05/21 14:52:27;;;;;;;1.42;0.90;;;;;;;20.11;32.68;99183.94;5171231;27;20460;-59
2021/05/21 14:54:52;;;;;;;1.30;0.65;;;;;;;20.16;32.82;99175.09;5171831;27;20059;-60
2021/05/21 14:57:22;;;;;;;3.85;1.00;;;;;;;20.17;33.03;99174.00;5171344;27;20031;-60
2021/05/21 14:59:51;;;;;;;2.72;0.70;;;;;;;20.37;33.41;99183.34;5171399;27;20819;-58
2021/05/21 15:02:21;;;;;;;3.13;0.90;;;;;;;20.38;33.47;99179.56;5160035;27;20023;-64
2021/05/21 15:04:48;;;;;;;2.67;0.80;;;;;;;20.36;32.86;99182.53;5157053;27;20508;-59
2021/05/21 15:07:14;;;;;;;2.03;0.60;;;;;;;20.31;33.11;99178.97;5156843;27;20035;-59
2021/05/21 15:09:39;;;;;;;1.45;0.60;;;;;;;20.26;33.12;99169.75;5156542;27;33958;-62
2021/05/21 15:12:06;;;;;;;5.13;0.88;;;;;;;20.16;33.17;99160.72;5156231;27;20030;-61
2021/05/21 15:14:34;;;;;;;2.00;0.95;;;;;;;20.12;33.57;99163.97;5157527;27;20027;-63
2021/05/21 15:17:15;;;;;;;1.77;0.60;;;;;;;20.04;33.52;99169.00;5157358;27;20034;-60
2021/05/21 15:25:00;;;;;;;1.60;0.63;;;;;;;19.99;33.62;99179.81;5157683;27;20031;-62
2021/05/21 15:27:26;;;;;;;1.50;0.60;;;;;;;19.91;33.76;99152.16;5157263;27;20031;-61
2021/05/21 15:29:51;;;;;;;1.75;0.75;;;;;;;19.89;34.13;99151.59;5157773;27;20062;-59
2021/05/21 15:32:17;;;;;;;1.23;0.68;;;;;;;19.86;34.00;99146.72;5157382;27;25940;-66
2021/05/21 15:34:42;;;;;;;3.08;0.63;;;;;;;19.88;34.18;99152.66;5156936;27;36111;-63
2021/05/21 15:37:08;;;;;;;4.05;0.60;;;;;;;19.86;34.23;99152.13;5157533;27;20054;-63
2021/05/21 15:39:33;;;;;;;1.40;0.80;;;;;;;19.86;34.32;99146.72;5155124;27;20034;-60
2021/05/21 15:47:18;;;;;;;1.48;0.70;;;;;;;19.72;34.07;99150.88;5152125;27;20047;-64
2021/05/21 15:49:51;;;;;;;2.15;0.60;;;;;;;19.70;34.16;99153.84;5156191;27;20051;-60
2021/05/21 15:54:51;;;;;;;1.40;0.90;;;;;;;19.64;33.86;99159.44;5158482;27;20039;-65
2021/05/21 15:59:43;;;;;;;1.33;0.60;;;;;;;19.50;33.74;99156.34;5157562;27;20031;-62
2021/05/21 16:02:09;;;;;;;1.60;0.60;;;;;;;19.43;33.92;99160.03;5158630;27;20860;-60
2021/05/21 16:04:34;;;;;;;1.35;0.60;;;;;;;19.37;34.06;99158.38;5158406;27;20040;-60
2021/05/21 16:06:59;;;;;;;1.70;0.60;;;;;;;19.35;34.21;99157.00;5158119;27;23390;-66
2021/05/21 16:09:25;;;;;;;1.35;0.65;;;;;;;19.33;33.91;99164.50;5153626;27;20034;-61
2021/05/21 16:11:51;;;;;;;2.90;0.73;;;;;;;19.32;34.37;99171.00;5156438;27;20371;-61
2021/05/21 16:14:17;;;;;;;2.28;0.70;;;;;;;19.30;34.39;99181.22;5155624;27;20023;-63
2021/05/21 16:16:42;;;;;;;2.15;0.60;;;;;;;19.22;34.41;99179.81;5156439;27;20027;-61
2021/05/21 16:19:07;;;;;;;1.83;0.52;;;;;;;19.14;34.44;99167.56;5156571;27;20019;-62
2021/05/21 16:21:33;;;;;;;2.17;0.70;;;;;;;19.05;34.71;99167.16;5155058;27;35006;-63
2021/05/21 16:24:00;;;;;;;3.22;0.55;;;;;;;18.99;34.77;99180.88;5155981;27;28539;-60
2021/05/21 16:26:26;;;;;;;1.33;0.70;;;;;;;18.94;34.96;99189.69;5155963;27;20028;-60
2021/05/21 16:28:52;;;;;;;0.95;0.50;;;;;;;18.88;34.80;99196.13;5156198;27;20474;-59
2021/05/21 16:31:17;;;;;;;2.00;0.70;;;;;;;18.83;34.91;99183.31;5156014;27;20034;-60
2021/05/21 16:33:43;;;;;;;3.40;1.85;;;;;;;18.79;34.87;99182.19;5155423;27;20387;-60
2021/05/21 16:36:09;;;;;;;1.25;0.60;;;;;;;18.74;34.88;99179.41;5155656;27;34380;-60
2021/05/21 16:38:34;;;;;;;3.65;1.42;;;;;;;18.74;35.12;99169.47;5155978;27;20493;-61
2021/05/21 16:41:04;;;;;;;5.25;2.28;;;;;;;18.70;35.04;99172.88;5155879;27;20023;-60
2021/05/21 16:43:29;;;;;;;1.50;0.70;;;;;;;18.65;35.15;99189.81;5154192;27;20418;-67
2021/05/21 16:45:54;;;;;;;1.40;0.63;;;;;;;18.64;35.09;99172.00;5152990;27;35570;-61
2021/05/21 16:48:20;;;;;;;0.63;0.50;;;;;;;18.56;35.18;99175.97;5154921;27;35790;-64
2021/05/21 16:50:45;;;;;;;2.05;0.60;;;;;;;18.51;35.17;99181.28;5155595;27;20039;-63
2021/05/21 16:53:11;;;;;;;3.13;0.85;;;;;;;18.43;35.50;99189.78;5155121;27;37737;-61
2021/05/21 16:55:36;;;;;;;2.97;1.00;;;;;;;18.37;35.39;99180.78;5153610;27;20368;-61
2021/05/21 16:58:02;;;;;;;2.30;0.80;;;;;;;18.30;35.43;99179.31;5156179;27;20027;-60
2021/05/21 17:00:27;;;;;;;2.05;0.70;;;;;;;18.25;35.67;99188.97;5155977;27;20356;-59
2021/05/21 17:02:53;;;;;;;1.08;0.50;;;;;;;18.21;35.56;99181.63;5155649;27;20027;-61
2021/05/21 17:05:18;;;;;;;2.85;0.60;;;;;;;18.17;35.77;99189.38;5155439;27;20039;-60
2021/05/21 17:07:44;;;;;;;2.55;0.60;;;;;;;18.13;35.86;99195.50;5153316;27;20120;-59
2021/05/21 17:10:12;;;;;;;1.88;0.70;;;;;;;18.06;35.83;99191.06;5155480;27;20034;-60
2021/05/21 17:12:41;;;;;;;2.22;1.00;;;;;;;17.99;35.53;99190.44;5155541;27;20825;-59
2021/05/21 17:15:35;;;;;;;3.42;0.60;;;;;;;17.90;35.86;99187.25;5155005;27;20031;-61
2021/05/21 17:53:00;;;;;;;2.28;0.80;;;;;;;16.48;39.71;99236.00;5152797;27;20036;-59
2021/05/21 17:55:01;;;;;;;1.73;0.70;;;;;;;16.41;40.94;99235.31;5146664;27;20148;-59
2021/05/21 18:03:08;;;;;;;0.50;0.40;;;;;;;16.04;42.86;99236.28;5127739;27;20855;-59
2021/05/21 18:08:37;;;;;;;2.47;0.90;;;;;;;15.83;43.33;99248.38;5151773;27;20483;-60
2021/05/21 18:11:31;;;;;;;1.33;0.60;;;;;;;15.73;45.34;99242.69;5154287;27;20034;-64
2021/05/21 18:41:53;;;;;;;1.65;0.82;;;;;;;14.79;51.37;99245.63;5153270;27;20039;-58
2021/05/21 19:02:08;;;;;;;3.85;1.70;;;;;;;13.96;54.47;99236.78;5153784;27;20039;-59
2021/05/21 19:04:38;;;;;;;2.33;1.27;;;;;;;13.91;54.75;99224.00;5154981;27;20045;-58
2021/05/21 19:10:05;;;;;;;3.38;1.63;;;;;;;13.73;56.53;99219.38;5151684;27;20035;-61
2021/05/21 19:15:09;;;;;;;1.67;1.10;;;;;;;13.58;57.29;99205.50;5132387;27;20035;-60
2021/05/21 19:17:36;;;;;;;2.88;1.23;;;;;;;13.49;58.29;99203.06;5146035;27;20034;-59
2021/05/21 19:20:09;;;;;;;2.45;1.42;;;;;;;13.43;58.30;99184.38;5153954;27;20019;-60
2021/05/21 19:23:20;;;;;;;4.78;1.35;;;;;;;13.39;58.98;99167.91;5158854;27;20795;-60
2021/05/21 19:25:20;;;;;;;2.63;1.23;;;;;;;13.37;60.44;99145.91;5157987;27;20031;-61